sensor_id;sensor_type;location;lat;lon;timestamp;P1;durP1;ratioP1;P2;durP2;ratioP2
75012;SDS011;63567;49.956;20.130;2023-04-01T00:00:48;2.22;;;0.55;;
75012;SDS011;63567;49.956;20.130;2023-04-01T00:03:13;1.77;;;0.80;;
75012;SDS011;63567;49.956;20.130;2023-04-01T00:05:39;2.03;;;0.50;;
75012;SDS011;63567;49.956;20.130;2023-04-01T00:08:04;2.33;;;0.70;;
75012;SDS011;63567;49.956;20.130;2023-04-01T00:10:29;1.40;;;0.60;;
75012;SDS011;63567;49.956;20.130;2023-04-01T00:12:55;2.45;;;0.73;;
75012;SDS011;63567;49.956;20.130;2023-04-01T00:15:20;1.55;;;0.45;;
75012;SDS011;63567;49.956;20.130;2023-04-01T00:17:46;1.47;;;0.50;;
75012;SDS011;63567;49.956;20.130;2023-04-01T00:20:11;3.25;;;0.70;;
75012;SDS011;63567;49.956;20.130;2023-04-01T00:22:37;1.60;;;0.50;;
75012;SDS011;63567;49.956;20.130;2023-04-01T00:25:03;1.73;;;0.70;;
75012;SDS011;63567;49.956;20.130;2023-04-01T00:27:29;2.13;;;0.50;;
75012;SDS011;63567;49.956;20.130;2023-04-01T00:29:55;1.95;;;0.52;;
75012;SDS011;63567;49.956;20.130;2023-04-01T00:32:20;2.03;;;0.60;;
75012;SDS011;63567;49.956;20.130;2023-04-01T00:34:46;1.90;;;0.68;;
75012;SDS011;63567;49.956;20.130;2023-04-01T00:37:15;1.27;;;0.50;;
75012;SDS011;63567;49.956;20.130;2023-04-01T00:39:41;2.90;;;0.90;;
75012;SDS011;63567;49.956;20.130;2023-04-01T00:42:06;2.37;;;0.60;;
75012;SDS011;63567;49.956;20.130;2023-04-01T00:44:36;2.08;;;0.60;;
75012;SDS011;63567;49.956;20.130;2023-04-01T00:47:02;2.40;;;0.60;;
75012;SDS011;63567;49.956;20.130;2023-04-01T00:49:31;3.10;;;0.60;;
75012;SDS011;63567;49.956;20.130;2023-04-01T00:52:02;1.83;;;0.70;;
75012;SDS011;63567;49.956;20.130;2023-04-01T00:54:29;2.60;;;0.70;;
75012;SDS011;63567;49.956;20.130;2023-04-01T00:56:57;1.58;;;0.65;;
75012;SDS011;63567;49.956;20.130;2023-04-01T00:59:27;2.65;;;0.80;;
75012;SDS011;63567;49.956;20.130;2023-04-01T01:01:56;1.60;;;0.90;;
75012;SDS011;63567;49.956;20.130;2023-04-01T01:15:31;1.38;;;0.50;;
75012;SDS011;63567;49.956;20.130;2023-04-01T01:19:04;1.52;;;0.60;;
75012;SDS011;63567;49.956;20.130;2023-04-01T01:23:59;2.97;;;0.80;;
75012;SDS011;63567;49.956;20.130;2023-04-01T01:26:42;2.45;;;0.90;;
75012;SDS011;63567;49.956;20.130;2023-04-01T01:37:55;1.77;;;0.75;;
75012;SDS011;63567;49.956;20.130;2023-04-01T01:40:24;2.92;;;0.70;;
75012;SDS011;63567;49.956;20.130;2023-04-01T01:42:53;2.05;;;0.80;;
75012;SDS011;63567;49.956;20.130;2023-04-01T01:45:23;4.05;;;1.08;;
75012;SDS011;63567;49.956;20.130;2023-04-01T01:47:51;2.10;;;0.80;;
75012;SDS011;63567;49.956;20.130;2023-04-01T01:50:17;3.00;;;0.70;;
75012;SDS011;63567;49.956;20.130;2023-04-01T01:52:44;1.98;;;0.88;;
75012;SDS011;63567;49.956;20.130;2023-04-01T01:55:29;2.50;;;0.68;;
75012;SDS011;63567;49.956;20.130;2023-04-01T01:57:57;2.83;;;0.60;;
75012;SDS011;63567;49.956;20.130;2023-04-01T02:00:25;3.78;;;0.90;;
75012;SDS011;63567;49.956;20.130;2023-04-01T02:02:52;2.35;;;0.70;;
75012;SDS011;63567;49.956;20.130;2023-04-01T02:05:20;2.15;;;0.98;;
75012;SDS011;63567;49.956;20.130;2023-04-01T02:07:53;2.20;;;1.00;;
75012;SDS011;63567;49.956;20.130;2023-04-01T02:10:25;2.45;;;0.80;;
75012;SDS011;63567;49.956;20.130;2023-04-01T02:12:54;2.88;;;1.10;;
75012;SDS011;63567;49.956;20.130;2023-04-01T02:15:23;2.05;;;0.60;;
75012;SDS011;63567;49.956;20.130;2023-04-01T02:17:52;2.65;;;0.82;;
75012;SDS011;63567;49.956;20.130;2023-04-01T02:20:19;2.45;;;0.80;;
75012;SDS011;63567;49.956;20.130;2023-04-01T02:22:48;2.65;;;0.65;;
75012;SDS011;63567;49.956;20.130;2023-04-01T02:25:27;2.42;;;1.02;;
75012;SDS011;63567;49.956;20.130;2023-04-01T02:28:00;1.48;;;0.63;;
75012;SDS011;63567;49.956;20.130;2023-04-01T02:30:27;2.03;;;0.75;;
75012;SDS011;63567;49.956;20.130;2023-04-01T02:32:55;2.28;;;1.05;;
75012;SDS011;63567;49.956;20.130;2023-04-01T02:35:23;3.05;;;0.80;;
75012;SDS011;63567;49.956;20.130;2023-04-01T02:37:49;3.05;;;1.30;;
75012;SDS011;63567;49.956;20.130;2023-04-01T02:40:17;2.60;;;1.23;;
75012;SDS011;63567;49.956;20.130;2023-04-01T02:42:42;2.80;;;0.90;;
75012;SDS011;63567;49.956;20.130;2023-04-01T02:45:08;2.17;;;0.98;;
75012;SDS011;63567;49.956;20.130;2023-04-01T02:47:34;2.75;;;0.88;;
75012;SDS011;63567;49.956;20.130;2023-04-01T02:50:00;3.17;;;0.80;;
75012;SDS011;63567;49.956;20.130;2023-04-01T02:52:26;2.90;;;1.10;;
75012;SDS011;63567;49.956;20.130;2023-04-01T02:54:53;1.63;;;0.70;;
75012;SDS011;63567;49.956;20.130;2023-04-01T02:57:18;1.90;;;0.80;;
75012;SDS011;63567;49.956;20.130;2023-04-01T02:59:45;1.77;;;0.90;;
75012;SDS011;63567;49.956;20.130;2023-04-01T03:02:10;3.22;;;0.80;;
75012;SDS011;63567;49.956;20.130;2023-04-01T03:04:36;2.97;;;1.02;;
75012;SDS011;63567;49.956;20.130;2023-04-01T03:07:01;2.33;;;0.90;;
75012;SDS011;63567;49.956;20.130;2023-04-01T03:09:26;1.80;;;0.90;;
75012;SDS011;63567;49.956;20.130;2023-04-01T03:11:53;2.35;;;1.10;;
75012;SDS011;63567;49.956;20.130;2023-04-01T03:14:18;3.90;;;0.90;;
75012;SDS011;63567;49.956;20.130;2023-04-01T03:16:44;4.00;;;1.20;;
75012;SDS011;63567;49.956;20.130;2023-04-01T03:19:09;3.40;;;1.07;;
75012;SDS011;63567;49.956;20.130;2023-04-01T03:21:35;3.38;;;1.00;;
75012;SDS011;63567;49.956;20.130;2023-04-01T03:24:00;2.97;;;1.10;;
75012;SDS011;63567;49.956;20.130;2023-04-01T03:26:25;2.15;;;1.00;;
75012;SDS011;63567;49.956;20.130;2023-04-01T03:28:54;2.90;;;1.08;;
75012;SDS011;63567;49.956;20.130;2023-04-01T03:31:20;2.13;;;0.90;;
75012;SDS011;63567;49.956;20.130;2023-04-01T03:33:45;2.43;;;1.00;;
75012;SDS011;63567;49.956;20.130;2023-04-01T03:36:11;2.80;;;0.90;;
75012;SDS011;63567;49.956;20.130;2023-04-01T03:38:37;2.63;;;1.15;;
75012;SDS011;63567;49.956;20.130;2023-04-01T03:41:04;2.97;;;1.40;;
75012;SDS011;63567;49.956;20.130;2023-04-01T03:43:29;3.10;;;0.80;;
75012;SDS011;63567;49.956;20.130;2023-04-01T03:45:54;2.85;;;1.10;;
75012;SDS011;63567;49.956;20.130;2023-04-01T03:48:22;2.45;;;1.20;;
75012;SDS011;63567;49.956;20.130;2023-04-01T03:50:48;1.88;;;1.00;;
75012;SDS011;63567;49.956;20.130;2023-04-01T03:53:13;4.30;;;1.10;;
75012;SDS011;63567;49.956;20.130;2023-04-01T03:55:40;2.42;;;1.10;;
75012;SDS011;63567;49.956;20.130;2023-04-01T03:58:06;2.67;;;1.08;;
75012;SDS011;63567;49.956;20.130;2023-04-01T04:00:32;1.70;;;0.77;;
75012;SDS011;63567;49.956;20.130;2023-04-01T04:02:58;2.05;;;0.93;;
75012;SDS011;63567;49.956;20.130;2023-04-01T04:05:24;3.22;;;1.10;;
75012;SDS011;63567;49.956;20.130;2023-04-01T04:07:50;3.72;;;1.10;;
75012;SDS011;63567;49.956;20.130;2023-04-01T04:10:16;2.55;;;1.10;;
75012;SDS011;63567;49.956;20.130;2023-04-01T04:12:42;5.93;;;1.00;;
75012;SDS011;63567;49.956;20.130;2023-04-01T04:15:08;2.58;;;1.23;;
75012;SDS011;63567;49.956;20.130;2023-04-01T04:17:34;4.32;;;1.20;;
75012;SDS011;63567;49.956;20.130;2023-04-01T04:20:00;2.45;;;1.30;;
75012;SDS011;63567;49.956;20.130;2023-04-01T04:22:26;2.55;;;1.20;;
75012;SDS011;63567;49.956;20.130;2023-04-01T04:24:51;2.53;;;1.27;;
75012;SDS011;63567;49.956;20.130;2023-04-01T04:27:17;3.83;;;1.53;;
75012;SDS011;63567;49.956;20.130;2023-04-01T04:29:42;3.22;;;1.40;;
75012;SDS011;63567;49.956;20.130;2023-04-01T04:32:08;4.38;;;1.75;;
75012;SDS011;63567;49.956;20.130;2023-04-01T04:34:33;3.58;;;1.83;;
75012;SDS011;63567;49.956;20.130;2023-04-01T04:36:58;3.38;;;1.52;;
75012;SDS011;63567;49.956;20.130;2023-04-01T04:39:24;3.28;;;1.60;;
75012;SDS011;63567;49.956;20.130;2023-04-01T04:41:49;2.92;;;1.50;;
75012;SDS011;63567;49.956;20.130;2023-04-01T04:44:15;2.33;;;1.20;;
75012;SDS011;63567;49.956;20.130;2023-04-01T04:46:40;2.27;;;1.10;;
75012;SDS011;63567;49.956;20.130;2023-04-01T04:49:06;2.70;;;1.20;;
75012;SDS011;63567;49.956;20.130;2023-04-01T04:51:31;3.42;;;1.30;;
75012;SDS011;63567;49.956;20.130;2023-04-01T04:53:59;1.83;;;0.98;;
75012;SDS011;63567;49.956;20.130;2023-04-01T04:56:25;2.85;;;1.00;;
75012;SDS011;63567;49.956;20.130;2023-04-01T04:58:51;2.47;;;0.90;;
75012;SDS011;63567;49.956;20.130;2023-04-01T05:01:16;3.40;;;1.00;;
75012;SDS011;63567;49.956;20.130;2023-04-01T05:03:42;3.20;;;0.80;;
75012;SDS011;63567;49.956;20.130;2023-04-01T05:06:08;3.67;;;1.20;;
75012;SDS011;63567;49.956;20.130;2023-04-01T05:08:35;2.47;;;1.20;;
75012;SDS011;63567;49.956;20.130;2023-04-01T05:11:02;2.30;;;1.10;;
75012;SDS011;63567;49.956;20.130;2023-04-01T05:13:28;2.38;;;0.93;;
75012;SDS011;63567;49.956;20.130;2023-04-01T05:15:54;2.35;;;1.02;;
75012;SDS011;63567;49.956;20.130;2023-04-01T05:18:20;2.50;;;1.17;;
75012;SDS011;63567;49.956;20.130;2023-04-01T05:20:50;2.85;;;0.90;;
75012;SDS011;63567;49.956;20.130;2023-04-01T05:23:18;2.00;;;1.10;;
75012;SDS011;63567;49.956;20.130;2023-04-01T05:25:45;3.15;;;0.90;;
75012;SDS011;63567;49.956;20.130;2023-04-01T05:28:11;2.38;;;1.30;;
75012;SDS011;63567;49.956;20.130;2023-04-01T05:30:39;1.58;;;0.80;;
75012;SDS011;63567;49.956;20.130;2023-04-01T05:33:08;3.05;;;1.27;;
75012;SDS011;63567;49.956;20.130;2023-04-01T05:35:35;2.45;;;1.00;;
75012;SDS011;63567;49.956;20.130;2023-04-01T05:38:01;2.92;;;1.20;;
75012;SDS011;63567;49.956;20.130;2023-04-01T05:40:27;3.17;;;1.48;;
75012;SDS011;63567;49.956;20.130;2023-04-01T05:42:53;2.75;;;1.30;;
75012;SDS011;63567;49.956;20.130;2023-04-01T05:45:18;2.90;;;1.47;;
75012;SDS011;63567;49.956;20.130;2023-04-01T05:47:44;2.75;;;1.40;;
75012;SDS011;63567;49.956;20.130;2023-04-01T05:50:10;4.00;;;1.55;;
75012;SDS011;63567;49.956;20.130;2023-04-01T05:52:36;4.20;;;1.92;;
75012;SDS011;63567;49.956;20.130;2023-04-01T05:55:01;3.38;;;1.70;;
75012;SDS011;63567;49.956;20.130;2023-04-01T05:57:27;3.47;;;1.63;;
75012;SDS011;63567;49.956;20.130;2023-04-01T05:59:53;3.15;;;1.88;;
75012;SDS011;63567;49.956;20.130;2023-04-01T06:02:18;3.63;;;1.90;;
75012;SDS011;63567;49.956;20.130;2023-04-01T06:04:44;3.92;;;1.52;;
75012;SDS011;63567;49.956;20.130;2023-04-01T06:07:13;3.88;;;1.67;;
75012;SDS011;63567;49.956;20.130;2023-04-01T06:09:40;3.25;;;1.45;;
75012;SDS011;63567;49.956;20.130;2023-04-01T06:14:57;3.08;;;1.45;;
75012;SDS011;63567;49.956;20.130;2023-04-01T06:45:10;2.42;;;1.08;;
75012;SDS011;63567;49.956;20.130;2023-04-01T06:53:27;1.83;;;1.02;;
75012;SDS011;63567;49.956;20.130;2023-04-01T06:56:12;2.40;;;1.10;;
75012;SDS011;63567;49.956;20.130;2023-04-01T06:58:45;3.67;;;1.20;;
75012;SDS011;63567;49.956;20.130;2023-04-01T07:01:18;3.75;;;1.58;;
75012;SDS011;63567;49.956;20.130;2023-04-01T07:03:49;1.85;;;0.90;;
75012;SDS011;63567;49.956;20.130;2023-04-01T07:06:29;3.05;;;1.38;;
75012;SDS011;63567;49.956;20.130;2023-04-01T07:09:12;5.00;;;1.30;;
75012;SDS011;63567;49.956;20.130;2023-04-01T07:11:47;3.55;;;1.13;;
75012;SDS011;63567;49.956;20.130;2023-04-01T07:19:21;2.60;;;1.13;;
75012;SDS011;63567;49.956;20.130;2023-04-01T07:21:52;2.05;;;1.00;;
75012;SDS011;63567;49.956;20.130;2023-04-01T07:24:25;1.60;;;1.00;;
75012;SDS011;63567;49.956;20.130;2023-04-01T07:26:55;2.50;;;1.13;;
75012;SDS011;63567;49.956;20.130;2023-04-01T07:29:22;2.70;;;1.25;;
75012;SDS011;63567;49.956;20.130;2023-04-01T07:34:19;2.63;;;1.02;;
75012;SDS011;63567;49.956;20.130;2023-04-01T07:39:37;3.63;;;1.40;;
75012;SDS011;63567;49.956;20.130;2023-04-01T08:20:26;3.90;;;1.52;;
75012;SDS011;63567;49.956;20.130;2023-04-01T08:25:42;3.38;;;1.30;;
75012;SDS011;63567;49.956;20.130;2023-04-01T08:28:15;3.33;;;1.17;;
75012;SDS011;63567;49.956;20.130;2023-04-01T08:33:25;3.27;;;1.40;;
75012;SDS011;63567;49.956;20.130;2023-04-01T08:41:25;3.53;;;1.45;;
75012;SDS011;63567;49.956;20.130;2023-04-01T08:46:38;3.13;;;1.50;;
75012;SDS011;63567;49.956;20.130;2023-04-01T08:54:49;1.98;;;1.45;;
75012;SDS011;63567;49.956;20.130;2023-04-01T09:00:39;2.17;;;1.20;;
75012;SDS011;63567;49.956;20.130;2023-04-01T09:03:26;1.88;;;1.15;;
75012;SDS011;63567;49.956;20.130;2023-04-01T09:11:41;5.00;;;1.70;;
75012;SDS011;63567;49.956;20.130;2023-04-01T09:22:17;2.25;;;1.40;;
75012;SDS011;63567;49.956;20.130;2023-04-01T09:27:49;3.08;;;1.30;;
75012;SDS011;63567;49.956;20.130;2023-04-01T09:33:29;2.50;;;1.48;;
75012;SDS011;63567;49.956;20.130;2023-04-01T09:50:28;2.55;;;1.00;;
75012;SDS011;63567;49.956;20.130;2023-04-01T09:59:02;2.78;;;1.35;;
75012;SDS011;63567;49.956;20.130;2023-04-01T10:01:49;2.72;;;1.40;;
75012;SDS011;63567;49.956;20.130;2023-04-01T10:07:22;2.53;;;0.90;;
75012;SDS011;63567;49.956;20.130;2023-04-01T10:09:59;2.17;;;1.20;;
75012;SDS011;63567;49.956;20.130;2023-04-01T10:32:39;3.38;;;2.22;;
75012;SDS011;63567;49.956;20.130;2023-04-01T10:52:36;3.70;;;1.90;;
75012;SDS011;63567;49.956;20.130;2023-04-01T11:01:11;5.65;;;2.75;;
75012;SDS011;63567;49.956;20.130;2023-04-01T11:04:03;3.00;;;1.85;;
75012;SDS011;63567;49.956;20.130;2023-04-01T11:24:34;3.50;;;1.92;;
75012;SDS011;63567;49.956;20.130;2023-04-01T11:27:09;4.78;;;3.20;;
75012;SDS011;63567;49.956;20.130;2023-04-01T11:30:05;3.92;;;2.45;;
75012;SDS011;63567;49.956;20.130;2023-04-01T11:41:40;2.30;;;1.25;;
75012;SDS011;63567;49.956;20.130;2023-04-01T11:44:13;3.20;;;1.90;;
75012;SDS011;63567;49.956;20.130;2023-04-01T11:54:39;2.88;;;1.90;;
75012;SDS011;63567;49.956;20.130;2023-04-01T12:08:52;2.55;;;1.80;;
75012;SDS011;63567;49.956;20.130;2023-04-01T12:11:41;2.55;;;1.95;;
75012;SDS011;63567;49.956;20.130;2023-04-01T12:14:27;2.80;;;1.58;;
75012;SDS011;63567;49.956;20.130;2023-04-01T12:26:23;3.78;;;2.35;;
75012;SDS011;63567;49.956;20.130;2023-04-01T12:37:26;4.00;;;2.42;;
75012;SDS011;63567;49.956;20.130;2023-04-01T12:39:55;3.03;;;2.17;;
75012;SDS011;63567;49.956;20.130;2023-04-01T12:46:07;3.53;;;2.40;;
75012;SDS011;63567;49.956;20.130;2023-04-01T12:51:34;3.90;;;2.67;;
75012;SDS011;63567;49.956;20.130;2023-04-01T12:56:49;3.27;;;2.20;;
75012;SDS011;63567;49.956;20.130;2023-04-01T13:01:59;2.90;;;2.10;;
75012;SDS011;63567;49.956;20.130;2023-04-01T13:20:43;3.58;;;3.03;;
75012;SDS011;63567;49.956;20.130;2023-04-01T13:23:32;4.60;;;2.20;;
75012;SDS011;63567;49.956;20.130;2023-04-01T13:29:06;3.40;;;2.40;;
75012;SDS011;63567;49.956;20.130;2023-04-01T13:31:54;2.65;;;2.17;;
75012;SDS011;63567;49.956;20.130;2023-04-01T13:54:16;5.82;;;4.10;;
75012;SDS011;63567;49.956;20.130;2023-04-01T13:56:15;5.15;;;4.07;;
75012;SDS011;63567;49.956;20.130;2023-04-01T14:23:42;7.28;;;4.90;;
75012;SDS011;63567;49.956;20.130;2023-04-01T14:32:02;6.72;;;3.40;;
75012;SDS011;63567;49.956;20.130;2023-04-01T14:40:00;3.97;;;1.88;;
75012;SDS011;63567;49.956;20.130;2023-04-01T14:48:28;4.57;;;2.58;;
75012;SDS011;63567;49.956;20.130;2023-04-01T14:53:44;4.55;;;2.53;;
75012;SDS011;63567;49.956;20.130;2023-04-01T14:59:09;5.38;;;3.13;;
75012;SDS011;63567;49.956;20.130;2023-04-01T15:24:24;5.82;;;4.30;;
75012;SDS011;63567;49.956;20.130;2023-04-01T15:37:53;6.60;;;3.17;;
75012;SDS011;63567;49.956;20.130;2023-04-01T15:40:23;79.03;;;9.27;;
75012;SDS011;63567;49.956;20.130;2023-04-01T15:43:19;7.28;;;4.47;;
75012;SDS011;63567;49.956;20.130;2023-04-01T15:45:51;5.45;;;3.80;;
75012;SDS011;63567;49.956;20.130;2023-04-01T15:48:33;5.53;;;3.47;;
75012;SDS011;63567;49.956;20.130;2023-04-01T15:51:21;6.22;;;4.15;;
75012;SDS011;63567;49.956;20.130;2023-04-01T16:05:44;5.03;;;3.00;;
75012;SDS011;63567;49.956;20.130;2023-04-01T16:08:56;5.88;;;3.40;;
75012;SDS011;63567;49.956;20.130;2023-04-01T16:11:28;6.45;;;3.90;;
75012;SDS011;63567;49.956;20.130;2023-04-01T16:16:59;6.32;;;3.67;;
75012;SDS011;63567;49.956;20.130;2023-04-01T16:22:27;8.98;;;4.88;;
75012;SDS011;63567;49.956;20.130;2023-04-01T16:27:54;8.32;;;4.57;;
75012;SDS011;63567;49.956;20.130;2023-04-01T16:31:04;7.53;;;4.05;;
75012;SDS011;63567;49.956;20.130;2023-04-01T16:44:31;9.75;;;6.22;;
75012;SDS011;63567;49.956;20.130;2023-04-01T16:47:16;10.50;;;6.72;;
75012;SDS011;63567;49.956;20.130;2023-04-01T16:49:59;11.80;;;7.57;;
75012;SDS011;63567;49.956;20.130;2023-04-01T16:55:20;9.75;;;5.68;;
75012;SDS011;63567;49.956;20.130;2023-04-01T16:57:50;13.55;;;7.25;;
75012;SDS011;63567;49.956;20.130;2023-04-01T17:00:40;12.63;;;7.38;;
75012;SDS011;63567;49.956;20.130;2023-04-01T17:03:12;11.85;;;7.63;;
75012;SDS011;63567;49.956;20.130;2023-04-01T17:05:54;12.68;;;8.13;;
75012;SDS011;63567;49.956;20.130;2023-04-01T17:08:28;11.95;;;7.43;;
75012;SDS011;63567;49.956;20.130;2023-04-01T17:27:00;9.35;;;5.05;;
75012;SDS011;63567;49.956;20.130;2023-04-01T17:44:10;12.38;;;6.35;;
75012;SDS011;63567;49.956;20.130;2023-04-01T17:46:56;9.70;;;6.03;;
75012;SDS011;63567;49.956;20.130;2023-04-01T17:55:09;9.48;;;6.35;;
75012;SDS011;63567;49.956;20.130;2023-04-01T18:00:50;7.88;;;5.15;;
75012;SDS011;63567;49.956;20.130;2023-04-01T18:11:43;9.52;;;6.38;;
75012;SDS011;63567;49.956;20.130;2023-04-01T18:17:23;11.95;;;6.32;;
75012;SDS011;63567;49.956;20.130;2023-04-01T18:20:19;10.80;;;6.28;;
75012;SDS011;63567;49.956;20.130;2023-04-01T18:25:36;11.73;;;6.05;;
75012;SDS011;63567;49.956;20.130;2023-04-01T18:30:52;10.50;;;7.47;;
75012;SDS011;63567;49.956;20.130;2023-04-01T18:33:41;12.88;;;7.35;;
75012;SDS011;63567;49.956;20.130;2023-04-01T18:36:19;14.98;;;8.45;;
75012;SDS011;63567;49.956;20.130;2023-04-01T18:39:23;18.48;;;9.43;;
75012;SDS011;63567;49.956;20.130;2023-04-01T18:45:40;15.38;;;8.05;;
75012;SDS011;63567;49.956;20.130;2023-04-01T18:48:30;17.90;;;10.02;;
75012;SDS011;63567;49.956;20.130;2023-04-01T18:56:37;16.65;;;9.88;;
75012;SDS011;63567;49.956;20.130;2023-04-01T19:05:23;13.60;;;7.28;;
75012;SDS011;63567;49.956;20.130;2023-04-01T19:10:22;15.88;;;8.85;;
75012;SDS011;63567;49.956;20.130;2023-04-01T19:16:10;19.33;;;10.20;;
75012;SDS011;63567;49.956;20.130;2023-04-01T19:18:57;15.38;;;9.30;;
75012;SDS011;63567;49.956;20.130;2023-04-01T19:21:29;12.63;;;7.78;;
75012;SDS011;63567;49.956;20.130;2023-04-01T19:34:53;13.13;;;8.30;;
75012;SDS011;63567;49.956;20.130;2023-04-01T19:37:32;11.95;;;6.78;;
75012;SDS011;63567;49.956;20.130;2023-04-01T19:40:16;13.15;;;7.38;;
75012;SDS011;63567;49.956;20.130;2023-04-01T19:43:02;13.13;;;8.40;;
75012;SDS011;63567;49.956;20.130;2023-04-01T19:48:30;13.10;;;8.65;;
75012;SDS011;63567;49.956;20.130;2023-04-01T19:51:16;16.65;;;9.10;;
75012;SDS011;63567;49.956;20.130;2023-04-01T19:54:01;16.38;;;9.30;;
75012;SDS011;63567;49.956;20.130;2023-04-01T19:56:39;13.63;;;8.43;;
75012;SDS011;63567;49.956;20.130;2023-04-01T19:59:15;17.10;;;10.40;;
75012;SDS011;63567;49.956;20.130;2023-04-01T20:04:15;17.57;;;11.60;;
75012;SDS011;63567;49.956;20.130;2023-04-01T20:12:18;18.27;;;11.10;;
75012;SDS011;63567;49.956;20.130;2023-04-01T20:14:57;19.25;;;11.63;;
75012;SDS011;63567;49.956;20.130;2023-04-01T20:25:21;19.55;;;12.05;;
75012;SDS011;63567;49.956;20.130;2023-04-01T20:36:06;21.83;;;12.88;;
75012;SDS011;63567;49.956;20.130;2023-04-01T20:41:12;22.13;;;12.10;;
75012;SDS011;63567;49.956;20.130;2023-04-01T20:44:01;21.27;;;12.13;;
75012;SDS011;63567;49.956;20.130;2023-04-01T21:03:27;25.08;;;14.70;;
75012;SDS011;63567;49.956;20.130;2023-04-01T21:08:58;29.35;;;16.83;;
75012;SDS011;63567;49.956;20.130;2023-04-01T21:17:34;27.52;;;15.45;;
75012;SDS011;63567;49.956;20.130;2023-04-01T21:20:18;31.27;;;17.23;;
75012;SDS011;63567;49.956;20.130;2023-04-01T21:23:02;27.67;;;15.65;;
75012;SDS011;63567;49.956;20.130;2023-04-01T21:30:49;31.00;;;15.52;;
75012;SDS011;63567;49.956;20.130;2023-04-01T21:59:16;26.23;;;14.82;;
75012;SDS011;63567;49.956;20.130;2023-04-01T22:07:15;25.75;;;14.15;;
75012;SDS011;63567;49.956;20.130;2023-04-01T22:17:51;27.48;;;15.50;;
75012;SDS011;63567;49.956;20.130;2023-04-01T22:20:33;26.98;;;14.48;;
75012;SDS011;63567;49.956;20.130;2023-04-01T22:28:18;27.45;;;15.10;;
75012;SDS011;63567;49.956;20.130;2023-04-01T22:30:59;24.90;;;14.32;;
75012;SDS011;63567;49.956;20.130;2023-04-01T22:36:20;26.45;;;14.98;;
75012;SDS011;63567;49.956;20.130;2023-04-01T22:44:59;26.05;;;14.35;;
75012;SDS011;63567;49.956;20.130;2023-04-01T22:49:56;27.00;;;14.73;;
75012;SDS011;63567;49.956;20.130;2023-04-01T22:52:34;27.05;;;14.25;;
75012;SDS011;63567;49.956;20.130;2023-04-01T22:55:28;28.35;;;15.98;;
75012;SDS011;63567;49.956;20.130;2023-04-01T22:58:05;28.17;;;14.23;;
75012;SDS011;63567;49.956;20.130;2023-04-01T23:00:38;30.15;;;14.75;;
75012;SDS011;63567;49.956;20.130;2023-04-01T23:03:13;30.08;;;16.02;;
75012;SDS011;63567;49.956;20.130;2023-04-01T23:05:52;33.83;;;16.30;;
75012;SDS011;63567;49.956;20.130;2023-04-01T23:11:10;29.52;;;14.52;;
75012;SDS011;63567;49.956;20.130;2023-04-01T23:13:54;32.45;;;16.80;;
75012;SDS011;63567;49.956;20.130;2023-04-01T23:16:45;31.33;;;16.70;;
75012;SDS011;63567;49.956;20.130;2023-04-01T23:19:23;31.67;;;16.45;;
75012;SDS011;63567;49.956;20.130;2023-04-01T23:24:25;32.27;;;17.33;;
75012;SDS011;63567;49.956;20.130;2023-04-01T23:26:56;34.67;;;17.58;;
75012;SDS011;63567;49.956;20.130;2023-04-01T23:29:27;38.08;;;17.92;;
75012;SDS011;63567;49.956;20.130;2023-04-01T23:31:59;33.30;;;17.80;;
75012;SDS011;63567;49.956;20.130;2023-04-01T23:34:33;32.30;;;16.67;;
75012;SDS011;63567;49.956;20.130;2023-04-01T23:37:04;32.78;;;17.90;;
75012;SDS011;63567;49.956;20.130;2023-04-01T23:39:34;34.28;;;17.15;;
75012;SDS011;63567;49.956;20.130;2023-04-01T23:42:04;37.25;;;17.92;;
75012;SDS011;63567;49.956;20.130;2023-04-01T23:44:29;35.10;;;17.80;;
75012;SDS011;63567;49.956;20.130;2023-04-01T23:46:57;31.02;;;16.38;;
75012;SDS011;63567;49.956;20.130;2023-04-01T23:49:25;30.90;;;15.77;;
75012;SDS011;63567;49.956;20.130;2023-04-01T23:51:59;29.02;;;15.63;;
75012;SDS011;63567;49.956;20.130;2023-04-01T23:54:29;29.42;;;14.82;;
75012;SDS011;63567;49.956;20.130;2023-04-01T23:56:58;26.52;;;14.57;;
75012;SDS011;63567;49.956;20.130;2023-04-01T23:59:29;29.48;;;15.65;;
